sensor_id;sensor_type;location;lat;lon;timestamp;P1;durP1;ratioP1;P2;durP2;ratioP2
59294;SDS011;45067;44.654;20.200;2023-01-25T00:01:31;18.15;;;10.20;;
59294;SDS011;45067;44.654;20.200;2023-01-25T00:04:21;23.05;;;10.30;;
59294;SDS011;45067;44.654;20.200;2023-01-25T00:06:48;17.45;;;9.88;;
59294;SDS011;45067;44.654;20.200;2023-01-25T00:09:16;17.48;;;9.63;;
59294;SDS011;45067;44.654;20.200;2023-01-25T00:11:46;18.23;;;9.88;;
59294;SDS011;45067;44.654;20.200;2023-01-25T00:14:13;17.30;;;9.57;;
59294;SDS011;45067;44.654;20.200;2023-01-25T00:16:40;17.50;;;9.85;;
59294;SDS011;45067;44.654;20.200;2023-01-25T00:19:07;14.98;;;9.13;;
59294;SDS011;45067;44.654;20.200;2023-01-25T00:21:36;18.15;;;10.60;;
59294;SDS011;45067;44.654;20.200;2023-01-25T00:24:03;16.95;;;9.43;;
59294;SDS011;45067;44.654;20.200;2023-01-25T00:26:34;17.83;;;11.00;;
59294;SDS011;45067;44.654;20.200;2023-01-25T00:29:09;18.85;;;10.05;;
59294;SDS011;45067;44.654;20.200;2023-01-25T00:37:41;21.77;;;10.15;;
59294;SDS011;45067;44.654;20.200;2023-01-25T00:40:15;19.75;;;10.07;;
59294;SDS011;45067;44.654;20.200;2023-01-25T00:42:55;20.50;;;11.25;;
59294;SDS011;45067;44.654;20.200;2023-01-25T00:45:24;19.27;;;10.15;;
59294;SDS011;45067;44.654;20.200;2023-01-25T00:48:02;20.02;;;10.93;;
59294;SDS011;45067;44.654;20.200;2023-01-25T00:50:36;18.48;;;9.25;;
59294;SDS011;45067;44.654;20.200;2023-01-25T00:53:08;16.15;;;9.50;;
59294;SDS011;45067;44.654;20.200;2023-01-25T00:55:37;17.60;;;10.00;;
59294;SDS011;45067;44.654;20.200;2023-01-25T00:58:11;17.42;;;10.82;;
59294;SDS011;45067;44.654;20.200;2023-01-25T01:00:53;17.73;;;9.75;;
59294;SDS011;45067;44.654;20.200;2023-01-25T01:06:29;18.33;;;9.93;;
59294;SDS011;45067;44.654;20.200;2023-01-25T01:08:59;17.65;;;9.82;;
59294;SDS011;45067;44.654;20.200;2023-01-25T01:11:27;17.05;;;9.48;;
59294;SDS011;45067;44.654;20.200;2023-01-25T01:14:18;18.10;;;9.77;;
59294;SDS011;45067;44.654;20.200;2023-01-25T01:16:45;21.25;;;11.07;;
59294;SDS011;45067;44.654;20.200;2023-01-25T01:19:12;19.70;;;11.05;;
59294;SDS011;45067;44.654;20.200;2023-01-25T01:21:40;21.63;;;11.30;;
59294;SDS011;45067;44.654;20.200;2023-01-25T01:24:08;19.45;;;10.63;;
59294;SDS011;45067;44.654;20.200;2023-01-25T01:26:35;18.60;;;10.07;;
59294;SDS011;45067;44.654;20.200;2023-01-25T01:29:02;18.98;;;10.38;;
59294;SDS011;45067;44.654;20.200;2023-01-25T01:31:29;18.60;;;10.10;;
59294;SDS011;45067;44.654;20.200;2023-01-25T01:33:56;19.85;;;9.88;;
59294;SDS011;45067;44.654;20.200;2023-01-25T01:36:26;20.53;;;10.57;;
59294;SDS011;45067;44.654;20.200;2023-01-25T01:38:54;18.67;;;9.75;;
59294;SDS011;45067;44.654;20.200;2023-01-25T01:41:21;19.52;;;10.48;;
59294;SDS011;45067;44.654;20.200;2023-01-25T01:43:50;22.00;;;11.18;;
59294;SDS011;45067;44.654;20.200;2023-01-25T01:46:30;20.25;;;10.30;;
59294;SDS011;45067;44.654;20.200;2023-01-25T01:49:31;18.92;;;10.13;;
59294;SDS011;45067;44.654;20.200;2023-01-25T01:52:16;20.65;;;11.07;;
59294;SDS011;45067;44.654;20.200;2023-01-25T01:55:06;18.92;;;11.10;;
59294;SDS011;45067;44.654;20.200;2023-01-25T01:57:34;18.00;;;9.77;;
59294;SDS011;45067;44.654;20.200;2023-01-25T02:02:36;17.70;;;9.30;;
59294;SDS011;45067;44.654;20.200;2023-01-25T02:08:02;20.13;;;9.90;;
59294;SDS011;45067;44.654;20.200;2023-01-25T02:10:47;18.45;;;10.45;;
59294;SDS011;45067;44.654;20.200;2023-01-25T02:13:18;17.20;;;9.93;;
59294;SDS011;45067;44.654;20.200;2023-01-25T02:15:48;19.00;;;10.30;;
59294;SDS011;45067;44.654;20.200;2023-01-25T02:18:15;17.45;;;9.57;;
59294;SDS011;45067;44.654;20.200;2023-01-25T02:21:01;19.48;;;10.50;;
59294;SDS011;45067;44.654;20.200;2023-01-25T02:23:32;18.15;;;10.50;;
59294;SDS011;45067;44.654;20.200;2023-01-25T02:26:06;18.30;;;10.50;;
59294;SDS011;45067;44.654;20.200;2023-01-25T02:30:58;20.30;;;10.55;;
59294;SDS011;45067;44.654;20.200;2023-01-25T02:33:27;17.60;;;10.13;;
59294;SDS011;45067;44.654;20.200;2023-01-25T02:38:34;19.30;;;10.13;;
59294;SDS011;45067;44.654;20.200;2023-01-25T02:44:20;19.85;;;10.57;;
59294;SDS011;45067;44.654;20.200;2023-01-25T03:01:06;17.55;;;10.32;;
59294;SDS011;45067;44.654;20.200;2023-01-25T03:09:52;15.55;;;9.20;;
59294;SDS011;45067;44.654;20.200;2023-01-25T03:12:23;16.55;;;8.93;;
59294;SDS011;45067;44.654;20.200;2023-01-25T03:15:13;18.20;;;8.80;;
59294;SDS011;45067;44.654;20.200;2023-01-25T03:18:17;17.08;;;9.23;;
59294;SDS011;45067;44.654;20.200;2023-01-25T03:31:29;20.38;;;11.02;;
59294;SDS011;45067;44.654;20.200;2023-01-25T03:37:41;17.92;;;9.88;;
59294;SDS011;45067;44.654;20.200;2023-01-25T03:48:40;21.40;;;11.15;;
59294;SDS011;45067;44.654;20.200;2023-01-25T03:51:23;18.40;;;10.13;;
59294;SDS011;45067;44.654;20.200;2023-01-25T03:57:06;16.75;;;9.80;;
59294;SDS011;45067;44.654;20.200;2023-01-25T04:33:03;17.92;;;10.07;;
59294;SDS011;45067;44.654;20.200;2023-01-25T04:35:30;21.15;;;11.80;;
59294;SDS011;45067;44.654;20.200;2023-01-25T04:38:00;19.33;;;10.45;;
59294;SDS011;45067;44.654;20.200;2023-01-25T04:49:37;16.70;;;9.23;;
59294;SDS011;45067;44.654;20.200;2023-01-25T04:52:09;18.13;;;10.57;;
59294;SDS011;45067;44.654;20.200;2023-01-25T04:54:41;22.52;;;13.48;;
59294;SDS011;45067;44.654;20.200;2023-01-25T04:57:19;27.97;;;17.37;;
59294;SDS011;45067;44.654;20.200;2023-01-25T04:59:58;18.50;;;11.23;;
59294;SDS011;45067;44.654;20.200;2023-01-25T05:05:50;15.90;;;10.23;;
59294;SDS011;45067;44.654;20.200;2023-01-25T05:08:16;16.88;;;9.55;;
59294;SDS011;45067;44.654;20.200;2023-01-25T05:10:43;16.08;;;9.00;;
59294;SDS011;45067;44.654;20.200;2023-01-25T05:13:22;13.40;;;8.45;;
59294;SDS011;45067;44.654;20.200;2023-01-25T05:15:50;17.92;;;8.55;;
59294;SDS011;45067;44.654;20.200;2023-01-25T05:18:26;15.60;;;8.35;;
59294;SDS011;45067;44.654;20.200;2023-01-25T05:20:55;17.25;;;8.88;;
59294;SDS011;45067;44.654;20.200;2023-01-25T05:23:22;19.90;;;9.50;;
59294;SDS011;45067;44.654;20.200;2023-01-25T05:25:49;17.80;;;9.20;;
59294;SDS011;45067;44.654;20.200;2023-01-25T05:28:36;15.80;;;8.93;;
59294;SDS011;45067;44.654;20.200;2023-01-25T05:31:25;16.02;;;8.73;;
59294;SDS011;45067;44.654;20.200;2023-01-25T05:33:59;24.63;;;9.07;;
59294;SDS011;45067;44.654;20.200;2023-01-25T05:36:43;16.63;;;8.82;;
59294;SDS011;45067;44.654;20.200;2023-01-25T05:39:21;17.00;;;8.73;;
59294;SDS011;45067;44.654;20.200;2023-01-25T05:42:15;16.60;;;8.82;;
59294;SDS011;45067;44.654;20.200;2023-01-25T05:44:48;21.17;;;10.05;;
59294;SDS011;45067;44.654;20.200;2023-01-25T05:52:38;22.92;;;10.50;;
59294;SDS011;45067;44.654;20.200;2023-01-25T05:55:19;26.38;;;10.93;;
59294;SDS011;45067;44.654;20.200;2023-01-25T05:58:09;24.70;;;10.70;;
59294;SDS011;45067;44.654;20.200;2023-01-25T06:01:02;24.95;;;12.20;;
59294;SDS011;45067;44.654;20.200;2023-01-25T06:03:31;20.65;;;11.30;;
59294;SDS011;45067;44.654;20.200;2023-01-25T06:06:07;22.73;;;11.52;;
59294;SDS011;45067;44.654;20.200;2023-01-25T06:47:41;21.67;;;10.95;;
59294;SDS011;45067;44.654;20.200;2023-01-25T06:50:44;21.40;;;11.60;;
59294;SDS011;45067;44.654;20.200;2023-01-25T06:54:00;19.48;;;11.50;;
59294;SDS011;45067;44.654;20.200;2023-01-25T07:15:43;22.85;;;12.77;;
59294;SDS011;45067;44.654;20.200;2023-01-25T07:18:39;25.42;;;13.80;;
59294;SDS011;45067;44.654;20.200;2023-01-25T07:42:05;23.85;;;12.32;;
59294;SDS011;45067;44.654;20.200;2023-01-25T07:45:27;22.88;;;11.57;;
59294;SDS011;45067;44.654;20.200;2023-01-25T07:48:12;21.85;;;12.57;;
59294;SDS011;45067;44.654;20.200;2023-01-25T07:54:16;20.98;;;11.50;;
59294;SDS011;45067;44.654;20.200;2023-01-25T08:03:08;22.33;;;12.13;;
59294;SDS011;45067;44.654;20.200;2023-01-25T08:05:46;16.42;;;10.23;;
59294;SDS011;45067;44.654;20.200;2023-01-25T08:08:19;20.52;;;11.50;;
59294;SDS011;45067;44.654;20.200;2023-01-25T08:13:47;22.02;;;12.50;;
59294;SDS011;45067;44.654;20.200;2023-01-25T08:16:18;22.08;;;12.75;;
59294;SDS011;45067;44.654;20.200;2023-01-25T08:24:51;22.30;;;12.45;;
59294;SDS011;45067;44.654;20.200;2023-01-25T08:27:22;25.02;;;13.85;;
59294;SDS011;45067;44.654;20.200;2023-01-25T08:29:55;25.30;;;15.23;;
59294;SDS011;45067;44.654;20.200;2023-01-25T08:32:22;25.80;;;15.15;;
59294;SDS011;45067;44.654;20.200;2023-01-25T08:35:08;23.00;;;14.15;;
59294;SDS011;45067;44.654;20.200;2023-01-25T08:37:55;21.85;;;13.25;;
59294;SDS011;45067;44.654;20.200;2023-01-25T08:40:22;23.55;;;13.00;;
59294;SDS011;45067;44.654;20.200;2023-01-25T08:43:28;24.60;;;12.23;;
59294;SDS011;45067;44.654;20.200;2023-01-25T08:45:59;21.15;;;12.13;;
59294;SDS011;45067;44.654;20.200;2023-01-25T08:48:30;21.55;;;12.45;;
59294;SDS011;45067;44.654;20.200;2023-01-25T08:54:11;30.27;;;15.57;;
59294;SDS011;45067;44.654;20.200;2023-01-25T08:56:42;22.45;;;14.48;;
59294;SDS011;45067;44.654;20.200;2023-01-25T08:59:14;22.38;;;13.20;;
59294;SDS011;45067;44.654;20.200;2023-01-25T09:02:27;24.95;;;13.25;;
59294;SDS011;45067;44.654;20.200;2023-01-25T09:11:16;17.73;;;10.23;;
59294;SDS011;45067;44.654;20.200;2023-01-25T09:14:04;20.75;;;11.48;;
59294;SDS011;45067;44.654;20.200;2023-01-25T09:16:49;20.30;;;11.48;;
59294;SDS011;45067;44.654;20.200;2023-01-25T09:19:33;19.08;;;11.57;;
59294;SDS011;45067;44.654;20.200;2023-01-25T09:22:04;20.73;;;11.82;;
59294;SDS011;45067;44.654;20.200;2023-01-25T09:24:33;23.08;;;12.43;;
59294;SDS011;45067;44.654;20.200;2023-01-25T09:27:21;20.05;;;10.82;;
59294;SDS011;45067;44.654;20.200;2023-01-25T09:29:54;22.80;;;11.97;;
59294;SDS011;45067;44.654;20.200;2023-01-25T09:32:30;20.80;;;11.60;;
59294;SDS011;45067;44.654;20.200;2023-01-25T09:35:06;19.92;;;11.50;;
59294;SDS011;45067;44.654;20.200;2023-01-25T09:55:39;24.00;;;14.00;;
59294;SDS011;45067;44.654;20.200;2023-01-25T09:58:54;22.15;;;12.93;;
59294;SDS011;45067;44.654;20.200;2023-01-25T10:01:35;23.50;;;12.70;;
59294;SDS011;45067;44.654;20.200;2023-01-25T10:04:39;19.63;;;11.90;;
59294;SDS011;45067;44.654;20.200;2023-01-25T10:10:22;23.40;;;12.70;;
59294;SDS011;45067;44.654;20.200;2023-01-25T10:13:03;21.17;;;12.63;;
59294;SDS011;45067;44.654;20.200;2023-01-25T10:15:47;26.70;;;14.70;;
59294;SDS011;45067;44.654;20.200;2023-01-25T10:21:24;19.88;;;11.88;;
59294;SDS011;45067;44.654;20.200;2023-01-25T10:35:45;23.38;;;12.18;;
59294;SDS011;45067;44.654;20.200;2023-01-25T10:38:56;17.80;;;10.93;;
59294;SDS011;45067;44.654;20.200;2023-01-25T10:44:27;16.95;;;10.50;;
59294;SDS011;45067;44.654;20.200;2023-01-25T10:53:37;18.80;;;10.63;;
59294;SDS011;45067;44.654;20.200;2023-01-25T10:56:41;19.17;;;10.95;;
59294;SDS011;45067;44.654;20.200;2023-01-25T11:11:57;18.50;;;10.68;;
59294;SDS011;45067;44.654;20.200;2023-01-25T11:15:22;21.38;;;11.07;;
59294;SDS011;45067;44.654;20.200;2023-01-25T11:18:21;24.17;;;12.73;;
59294;SDS011;45067;44.654;20.200;2023-01-25T11:24:17;21.83;;;12.23;;
59294;SDS011;45067;44.654;20.200;2023-01-25T11:26:45;20.45;;;11.48;;
59294;SDS011;45067;44.654;20.200;2023-01-25T11:29:25;32.22;;;18.38;;
59294;SDS011;45067;44.654;20.200;2023-01-25T11:32:18;22.38;;;12.02;;
59294;SDS011;45067;44.654;20.200;2023-01-25T11:35:31;18.17;;;9.38;;
59294;SDS011;45067;44.654;20.200;2023-01-25T11:38:26;15.88;;;8.73;;
59294;SDS011;45067;44.654;20.200;2023-01-25T11:41:11;15.80;;;9.30;;
59294;SDS011;45067;44.654;20.200;2023-01-25T11:47:24;21.05;;;12.75;;
59294;SDS011;45067;44.654;20.200;2023-01-25T12:11:01;17.27;;;9.80;;
59294;SDS011;45067;44.654;20.200;2023-01-25T12:25:29;20.95;;;11.52;;
59294;SDS011;45067;44.654;20.200;2023-01-25T12:28:47;17.42;;;9.50;;
59294;SDS011;45067;44.654;20.200;2023-01-25T12:35:32;20.60;;;10.80;;
59294;SDS011;45067;44.654;20.200;2023-01-25T12:38:37;19.83;;;10.38;;
59294;SDS011;45067;44.654;20.200;2023-01-25T12:41:52;18.83;;;10.45;;
59294;SDS011;45067;44.654;20.200;2023-01-25T12:44:51;15.52;;;9.35;;
59294;SDS011;45067;44.654;20.200;2023-01-25T12:47:46;17.95;;;10.95;;
59294;SDS011;45067;44.654;20.200;2023-01-25T12:59:37;24.67;;;14.15;;
59294;SDS011;45067;44.654;20.200;2023-01-25T13:11:37;25.92;;;13.98;;
59294;SDS011;45067;44.654;20.200;2023-01-25T13:23:43;26.83;;;15.30;;
59294;SDS011;45067;44.654;20.200;2023-01-25T13:43:29;17.83;;;9.80;;
59294;SDS011;45067;44.654;20.200;2023-01-25T13:54:15;17.83;;;10.23;;
59294;SDS011;45067;44.654;20.200;2023-01-25T13:56:53;15.50;;;9.27;;
59294;SDS011;45067;44.654;20.200;2023-01-25T14:03:12;23.92;;;11.73;;
59294;SDS011;45067;44.654;20.200;2023-01-25T14:06:01;22.42;;;12.30;;
59294;SDS011;45067;44.654;20.200;2023-01-25T14:11:29;18.65;;;10.52;;
59294;SDS011;45067;44.654;20.200;2023-01-25T14:17:22;20.42;;;11.23;;
59294;SDS011;45067;44.654;20.200;2023-01-25T14:25:41;22.02;;;12.52;;
59294;SDS011;45067;44.654;20.200;2023-01-25T14:34:24;19.00;;;10.95;;
59294;SDS011;45067;44.654;20.200;2023-01-25T14:43:26;22.88;;;12.93;;
59294;SDS011;45067;44.654;20.200;2023-01-25T14:46:34;25.27;;;11.38;;
59294;SDS011;45067;44.654;20.200;2023-01-25T14:55:45;22.52;;;12.25;;
59294;SDS011;45067;44.654;20.200;2023-01-25T14:58:23;21.48;;;12.38;;
59294;SDS011;45067;44.654;20.200;2023-01-25T15:00:57;22.15;;;12.40;;
59294;SDS011;45067;44.654;20.200;2023-01-25T15:03:56;21.50;;;13.07;;
59294;SDS011;45067;44.654;20.200;2023-01-25T15:28:49;22.45;;;12.93;;
59294;SDS011;45067;44.654;20.200;2023-01-25T15:34:27;23.58;;;13.30;;
59294;SDS011;45067;44.654;20.200;2023-01-25T15:43:41;26.50;;;14.45;;
59294;SDS011;45067;44.654;20.200;2023-01-25T15:58:06;19.42;;;11.00;;
59294;SDS011;45067;44.654;20.200;2023-01-25T16:01:23;19.35;;;12.25;;
59294;SDS011;45067;44.654;20.200;2023-01-25T16:14:50;25.92;;;13.88;;
59294;SDS011;45067;44.654;20.200;2023-01-25T16:17:53;25.17;;;13.38;;
59294;SDS011;45067;44.654;20.200;2023-01-25T16:20:57;23.70;;;12.77;;
59294;SDS011;45067;44.654;20.200;2023-01-25T16:26:02;20.27;;;10.75;;
59294;SDS011;45067;44.654;20.200;2023-01-25T16:28:48;18.98;;;11.10;;
59294;SDS011;45067;44.654;20.200;2023-01-25T16:31:58;18.15;;;11.02;;
59294;SDS011;45067;44.654;20.200;2023-01-25T16:37:15;18.27;;;10.40;;
59294;SDS011;45067;44.654;20.200;2023-01-25T16:39:52;18.33;;;10.73;;
59294;SDS011;45067;44.654;20.200;2023-01-25T16:42:49;20.48;;;11.70;;
59294;SDS011;45067;44.654;20.200;2023-01-25T16:48:05;21.25;;;12.35;;
59294;SDS011;45067;44.654;20.200;2023-01-25T16:59:22;23.65;;;13.23;;
59294;SDS011;45067;44.654;20.200;2023-01-25T17:01:50;30.20;;;17.05;;
59294;SDS011;45067;44.654;20.200;2023-01-25T17:04:20;25.13;;;14.38;;
59294;SDS011;45067;44.654;20.200;2023-01-25T17:06:54;23.48;;;13.15;;
59294;SDS011;45067;44.654;20.200;2023-01-25T17:15:28;23.05;;;14.20;;
59294;SDS011;45067;44.654;20.200;2023-01-25T17:20:39;28.23;;;16.35;;
59294;SDS011;45067;44.654;20.200;2023-01-25T17:23:27;27.00;;;15.40;;
59294;SDS011;45067;44.654;20.200;2023-01-25T17:26:31;25.55;;;15.23;;
59294;SDS011;45067;44.654;20.200;2023-01-25T17:29:26;22.33;;;13.57;;
59294;SDS011;45067;44.654;20.200;2023-01-25T17:31:55;25.23;;;13.93;;
59294;SDS011;45067;44.654;20.200;2023-01-25T17:45:03;26.10;;;15.70;;
59294;SDS011;45067;44.654;20.200;2023-01-25T17:47:57;32.38;;;17.90;;
59294;SDS011;45067;44.654;20.200;2023-01-25T17:53:20;38.60;;;20.98;;
59294;SDS011;45067;44.654;20.200;2023-01-25T17:56:21;36.08;;;20.73;;
59294;SDS011;45067;44.654;20.200;2023-01-25T17:59:22;33.17;;;18.13;;
59294;SDS011;45067;44.654;20.200;2023-01-25T18:43:53;27.10;;;15.48;;
59294;SDS011;45067;44.654;20.200;2023-01-25T18:46:41;29.88;;;16.63;;
59294;SDS011;45067;44.654;20.200;2023-01-25T18:52:08;26.15;;;15.57;;
59294;SDS011;45067;44.654;20.200;2023-01-25T18:55:12;26.98;;;15.07;;
59294;SDS011;45067;44.654;20.200;2023-01-25T18:57:50;29.52;;;16.02;;
59294;SDS011;45067;44.654;20.200;2023-01-25T20:28:48;23.13;;;13.50;;
59294;SDS011;45067;44.654;20.200;2023-01-25T20:34:25;28.00;;;16.27;;
59294;SDS011;45067;44.654;20.200;2023-01-25T20:37:14;27.73;;;14.45;;
59294;SDS011;45067;44.654;20.200;2023-01-25T20:42:28;24.08;;;14.65;;
59294;SDS011;45067;44.654;20.200;2023-01-25T20:44:56;23.83;;;13.20;;
59294;SDS011;45067;44.654;20.200;2023-01-25T20:47:23;22.55;;;12.85;;
59294;SDS011;45067;44.654;20.200;2023-01-25T20:49:49;22.67;;;12.88;;
59294;SDS011;45067;44.654;20.200;2023-01-25T20:52:30;21.10;;;12.13;;
59294;SDS011;45067;44.654;20.200;2023-01-25T20:55:33;20.08;;;11.25;;
59294;SDS011;45067;44.654;20.200;2023-01-25T20:58:45;42.70;;;24.90;;
59294;SDS011;45067;44.654;20.200;2023-01-25T21:01:29;43.80;;;26.83;;
59294;SDS011;45067;44.654;20.200;2023-01-25T21:04:24;25.98;;;14.77;;
59294;SDS011;45067;44.654;20.200;2023-01-25T21:07:12;27.60;;;15.43;;
59294;SDS011;45067;44.654;20.200;2023-01-25T21:12:42;44.53;;;24.20;;
59294;SDS011;45067;44.654;20.200;2023-01-25T21:15:32;32.53;;;20.30;;
59294;SDS011;45067;44.654;20.200;2023-01-25T21:18:20;29.02;;;18.52;;
59294;SDS011;45067;44.654;20.200;2023-01-25T21:21:03;26.65;;;16.33;;
59294;SDS011;45067;44.654;20.200;2023-01-25T21:23:36;22.30;;;12.45;;
59294;SDS011;45067;44.654;20.200;2023-01-25T21:32:10;23.33;;;13.10;;
59294;SDS011;45067;44.654;20.200;2023-01-25T22:14:09;23.75;;;12.57;;
59294;SDS011;45067;44.654;20.200;2023-01-25T22:16:53;27.05;;;15.48;;
59294;SDS011;45067;44.654;20.200;2023-01-25T22:19:21;20.42;;;12.95;;
59294;SDS011;45067;44.654;20.200;2023-01-25T22:21:58;22.20;;;13.02;;
59294;SDS011;45067;44.654;20.200;2023-01-25T22:37:38;23.75;;;13.75;;
59294;SDS011;45067;44.654;20.200;2023-01-25T22:40:27;26.35;;;15.57;;
59294;SDS011;45067;44.654;20.200;2023-01-25T23:00:33;21.42;;;12.60;;
59294;SDS011;45067;44.654;20.200;2023-01-25T23:03:24;19.67;;;11.88;;
59294;SDS011;45067;44.654;20.200;2023-01-25T23:22:38;17.67;;;11.05;;
59294;SDS011;45067;44.654;20.200;2023-01-25T23:25:39;23.77;;;11.20;;
59294;SDS011;45067;44.654;20.200;2023-01-25T23:28:26;22.73;;;10.82;;
59294;SDS011;45067;44.654;20.200;2023-01-25T23:48:20;16.83;;;9.55;;
59294;SDS011;45067;44.654;20.200;2023-01-25T23:56:31;19.23;;;11.20;;
59294;SDS011;45067;44.654;20.200;2023-01-25T23:59:16;19.60;;;11.02;;
